sensor_id;sensor_type;location;lat;lon;timestamp;temperature;humidity
25839;DHT22;13669;50.186;27.062;2022-12-10T00:01:27;1.70;99.90
25839;DHT22;13669;50.186;27.062;2022-12-10T00:03:55;1.80;99.90
25839;DHT22;13669;50.186;27.062;2022-12-10T00:06:25;1.80;99.90
25839;DHT22;13669;50.186;27.062;2022-12-10T00:08:53;1.80;99.90
25839;DHT22;13669;50.186;27.062;2022-12-10T00:11:22;1.80;99.90
25839;DHT22;13669;50.186;27.062;2022-12-10T00:13:50;1.80;99.90
25839;DHT22;13669;50.186;27.062;2022-12-10T00:16:20;1.80;99.90
25839;DHT22;13669;50.186;27.062;2022-12-10T00:18:48;1.80;99.90
25839;DHT22;13669;50.186;27.062;2022-12-10T00:21:22;1.80;99.90
25839;DHT22;13669;50.186;27.062;2022-12-10T00:23:50;1.90;99.90
25839;DHT22;13669;50.186;27.062;2022-12-10T00:26:20;1.90;99.90
25839;DHT22;13669;50.186;27.062;2022-12-10T00:28:49;1.90;99.90
25839;DHT22;13669;50.186;27.062;2022-12-10T00:31:23;2.00;99.90
25839;DHT22;13669;50.186;27.062;2022-12-10T00:33:53;2.00;99.90
25839;DHT22;13669;50.186;27.062;2022-12-10T00:36:24;2.00;99.90
25839;DHT22;13669;50.186;27.062;2022-12-10T00:38:52;2.10;99.90
25839;DHT22;13669;50.186;27.062;2022-12-10T00:41:20;2.00;99.90
25839;DHT22;13669;50.186;27.062;2022-12-10T00:43:48;2.00;99.90
25839;DHT22;13669;50.186;27.062;2022-12-10T00:46:17;2.00;99.90
25839;DHT22;13669;50.186;27.062;2022-12-10T00:48:46;1.90;99.90
25839;DHT22;13669;50.186;27.062;2022-12-10T00:51:16;2.00;99.90
25839;DHT22;13669;50.186;27.062;2022-12-10T00:53:45;2.00;99.90
25839;DHT22;13669;50.186;27.062;2022-12-10T00:56:16;2.00;99.90
25839;DHT22;13669;50.186;27.062;2022-12-10T00:58:44;2.10;99.90
25839;DHT22;13669;50.186;27.062;2022-12-10T01:01:20;2.10;99.90
25839;DHT22;13669;50.186;27.062;2022-12-10T01:03:52;2.10;99.90
25839;DHT22;13669;50.186;27.062;2022-12-10T01:06:29;2.20;99.90
25839;DHT22;13669;50.186;27.062;2022-12-10T01:08:59;2.20;99.90
25839;DHT22;13669;50.186;27.062;2022-12-10T01:11:34;2.30;99.90
25839;DHT22;13669;50.186;27.062;2022-12-10T01:14:05;2.30;99.90
25839;DHT22;13669;50.186;27.062;2022-12-10T01:16:33;2.30;99.90
25839;DHT22;13669;50.186;27.062;2022-12-10T01:19:01;2.40;99.90
25839;DHT22;13669;50.186;27.062;2022-12-10T01:21:29;2.40;99.90
25839;DHT22;13669;50.186;27.062;2022-12-10T01:23:58;2.40;99.90
25839;DHT22;13669;50.186;27.062;2022-12-10T01:26:27;2.40;99.90
25839;DHT22;13669;50.186;27.062;2022-12-10T01:28:56;2.50;99.90
25839;DHT22;13669;50.186;27.062;2022-12-10T01:31:30;2.50;99.90
25839;DHT22;13669;50.186;27.062;2022-12-10T01:33:58;2.50;99.90
25839;DHT22;13669;50.186;27.062;2022-12-10T01:36:29;2.40;99.90
25839;DHT22;13669;50.186;27.062;2022-12-10T01:38:57;2.30;99.90
25839;DHT22;13669;50.186;27.062;2022-12-10T01:41:27;2.40;99.90
25839;DHT22;13669;50.186;27.062;2022-12-10T01:46:47;2.40;99.90
25839;DHT22;13669;50.186;27.062;2022-12-10T01:49:20;2.40;99.90
25839;DHT22;13669;50.186;27.062;2022-12-10T01:51:51;2.40;99.90
25839;DHT22;13669;50.186;27.062;2022-12-10T01:54:30;2.40;99.90
25839;DHT22;13669;50.186;27.062;2022-12-10T01:57:02;2.50;99.90
25839;DHT22;13669;50.186;27.062;2022-12-10T01:59:30;2.50;99.90
25839;DHT22;13669;50.186;27.062;2022-12-10T02:14:58;2.60;99.90
25839;DHT22;13669;50.186;27.062;2022-12-10T02:17:43;2.60;99.90
25839;DHT22;13669;50.186;27.062;2022-12-10T02:22:49;2.50;99.90
25839;DHT22;13669;50.186;27.062;2022-12-10T02:25:22;2.60;99.90
25839;DHT22;13669;50.186;27.062;2022-12-10T02:30:35;2.60;99.90
25839;DHT22;13669;50.186;27.062;2022-12-10T02:33:05;2.70;99.90
25839;DHT22;13669;50.186;27.062;2022-12-10T02:35:35;2.70;99.90
25839;DHT22;13669;50.186;27.062;2022-12-10T02:38:27;2.70;99.90
25839;DHT22;13669;50.186;27.062;2022-12-10T02:41:06;2.70;99.90
25839;DHT22;13669;50.186;27.062;2022-12-10T02:43:35;2.70;99.90
25839;DHT22;13669;50.186;27.062;2022-12-10T02:46:03;2.70;99.90
25839;DHT22;13669;50.186;27.062;2022-12-10T02:48:32;2.70;99.90
25839;DHT22;13669;50.186;27.062;2022-12-10T02:51:02;2.70;99.90
25839;DHT22;13669;50.186;27.062;2022-12-10T02:53:29;2.80;99.90
25839;DHT22;13669;50.186;27.062;2022-12-10T02:56:27;2.70;99.90
25839;DHT22;13669;50.186;27.062;2022-12-10T02:59:08;2.70;99.90
25839;DHT22;13669;50.186;27.062;2022-12-10T03:01:52;2.70;99.90
25839;DHT22;13669;50.186;27.062;2022-12-10T03:07:03;2.70;99.90
25839;DHT22;13669;50.186;27.062;2022-12-10T03:09:43;2.70;99.90
25839;DHT22;13669;50.186;27.062;2022-12-10T03:12:24;2.70;99.90
25839;DHT22;13669;50.186;27.062;2022-12-10T03:14:58;2.80;99.90
25839;DHT22;13669;50.186;27.062;2022-12-10T03:17:27;2.80;99.90
25839;DHT22;13669;50.186;27.062;2022-12-10T03:19:56;2.80;99.90
25839;DHT22;13669;50.186;27.062;2022-12-10T03:22:24;2.80;99.90
25839;DHT22;13669;50.186;27.062;2022-12-10T03:24:53;2.80;99.90
25839;DHT22;13669;50.186;27.062;2022-12-10T03:27:22;2.80;99.90
25839;DHT22;13669;50.186;27.062;2022-12-10T03:29:54;2.90;99.90
25839;DHT22;13669;50.186;27.062;2022-12-10T03:32:26;2.90;99.90
25839;DHT22;13669;50.186;27.062;2022-12-10T03:34:56;2.90;99.90
25839;DHT22;13669;50.186;27.062;2022-12-10T03:37:26;2.90;99.90
25839;DHT22;13669;50.186;27.062;2022-12-10T03:39:54;2.90;99.90
25839;DHT22;13669;50.186;27.062;2022-12-10T03:42:22;2.90;99.90
25839;DHT22;13669;50.186;27.062;2022-12-10T03:44:50;2.90;99.90
25839;DHT22;13669;50.186;27.062;2022-12-10T03:47:19;2.90;99.90
25839;DHT22;13669;50.186;27.062;2022-12-10T03:49:47;2.80;99.90
25839;DHT22;13669;50.186;27.062;2022-12-10T03:52:14;2.80;99.90
25839;DHT22;13669;50.186;27.062;2022-12-10T03:54:41;2.80;99.90
25839;DHT22;13669;50.186;27.062;2022-12-10T03:57:09;2.80;99.90
25839;DHT22;13669;50.186;27.062;2022-12-10T03:59:36;2.70;99.90
25839;DHT22;13669;50.186;27.062;2022-12-10T04:02:04;2.70;99.90
25839;DHT22;13669;50.186;27.062;2022-12-10T04:04:31;2.70;99.90
25839;DHT22;13669;50.186;27.062;2022-12-10T04:06:59;2.70;99.90
25839;DHT22;13669;50.186;27.062;2022-12-10T04:09:26;2.60;99.90
25839;DHT22;13669;50.186;27.062;2022-12-10T04:11:58;2.60;99.90
25839;DHT22;13669;50.186;27.062;2022-12-10T04:14:27;2.60;99.90
25839;DHT22;13669;50.186;27.062;2022-12-10T04:17:14;2.60;99.90
25839;DHT22;13669;50.186;27.062;2022-12-10T04:19:41;2.60;99.90
25839;DHT22;13669;50.186;27.062;2022-12-10T04:22:10;2.60;99.90
25839;DHT22;13669;50.186;27.062;2022-12-10T04:24:56;2.60;99.90
25839;DHT22;13669;50.186;27.062;2022-12-10T04:27:42;2.50;99.90
25839;DHT22;13669;50.186;27.062;2022-12-10T04:30:11;2.60;99.90
25839;DHT22;13669;50.186;27.062;2022-12-10T04:32:39;2.60;99.90
25839;DHT22;13669;50.186;27.062;2022-12-10T04:35:07;2.60;99.90
25839;DHT22;13669;50.186;27.062;2022-12-10T04:37:34;2.60;99.90
25839;DHT22;13669;50.186;27.062;2022-12-10T04:40:02;2.60;99.90
25839;DHT22;13669;50.186;27.062;2022-12-10T04:42:30;2.60;99.90
25839;DHT22;13669;50.186;27.062;2022-12-10T04:44:57;2.60;99.90
25839;DHT22;13669;50.186;27.062;2022-12-10T04:47:24;2.50;99.90
25839;DHT22;13669;50.186;27.062;2022-12-10T04:49:52;2.50;99.90
25839;DHT22;13669;50.186;27.062;2022-12-10T04:52:19;2.60;99.90
25839;DHT22;13669;50.186;27.062;2022-12-10T04:54:47;2.60;99.90
25839;DHT22;13669;50.186;27.062;2022-12-10T04:57:14;2.60;99.90
25839;DHT22;13669;50.186;27.062;2022-12-10T04:59:42;2.60;99.90
25839;DHT22;13669;50.186;27.062;2022-12-10T05:02:10;2.60;99.90
25839;DHT22;13669;50.186;27.062;2022-12-10T05:04:37;2.60;99.90
25839;DHT22;13669;50.186;27.062;2022-12-10T05:07:05;2.60;99.90
25839;DHT22;13669;50.186;27.062;2022-12-10T05:09:32;2.60;99.90
25839;DHT22;13669;50.186;27.062;2022-12-10T05:12:00;2.70;99.90
25839;DHT22;13669;50.186;27.062;2022-12-10T05:14:27;2.60;99.90
25839;DHT22;13669;50.186;27.062;2022-12-10T05:16:55;2.70;99.90
25839;DHT22;13669;50.186;27.062;2022-12-10T05:19:22;2.60;99.90
25839;DHT22;13669;50.186;27.062;2022-12-10T05:21:50;2.60;99.90
25839;DHT22;13669;50.186;27.062;2022-12-10T05:24:37;2.70;99.90
25839;DHT22;13669;50.186;27.062;2022-12-10T05:27:05;2.70;99.90
25839;DHT22;13669;50.186;27.062;2022-12-10T05:29:33;2.70;99.90
25839;DHT22;13669;50.186;27.062;2022-12-10T05:32:01;2.80;99.90
25839;DHT22;13669;50.186;27.062;2022-12-10T05:34:29;2.80;99.90
25839;DHT22;13669;50.186;27.062;2022-12-10T05:36:56;2.70;99.90
25839;DHT22;13669;50.186;27.062;2022-12-10T05:39:24;2.80;99.90
25839;DHT22;13669;50.186;27.062;2022-12-10T05:41:51;2.80;99.90
25839;DHT22;13669;50.186;27.062;2022-12-10T05:44:19;2.80;99.90
25839;DHT22;13669;50.186;27.062;2022-12-10T05:46:46;2.80;99.90
25839;DHT22;13669;50.186;27.062;2022-12-10T05:49:13;2.90;99.90
25839;DHT22;13669;50.186;27.062;2022-12-10T05:51:41;2.90;99.90
25839;DHT22;13669;50.186;27.062;2022-12-10T05:54:09;3.00;99.90
25839;DHT22;13669;50.186;27.062;2022-12-10T05:56:37;2.90;99.90
25839;DHT22;13669;50.186;27.062;2022-12-10T05:59:05;2.90;99.90
25839;DHT22;13669;50.186;27.062;2022-12-10T06:01:40;2.90;99.90
25839;DHT22;13669;50.186;27.062;2022-12-10T06:04:08;2.90;99.90
25839;DHT22;13669;50.186;27.062;2022-12-10T06:06:37;2.90;99.90
25839;DHT22;13669;50.186;27.062;2022-12-10T06:09:06;2.90;99.90
25839;DHT22;13669;50.186;27.062;2022-12-10T06:11:37;2.90;99.90
25839;DHT22;13669;50.186;27.062;2022-12-10T06:14:04;2.90;99.90
25839;DHT22;13669;50.186;27.062;2022-12-10T06:16:32;2.90;99.90
25839;DHT22;13669;50.186;27.062;2022-12-10T06:19:00;2.80;99.90
25839;DHT22;13669;50.186;27.062;2022-12-10T06:21:27;2.80;99.90
25839;DHT22;13669;50.186;27.062;2022-12-10T06:23:55;2.80;99.90
25839;DHT22;13669;50.186;27.062;2022-12-10T06:26:24;2.80;99.90
25839;DHT22;13669;50.186;27.062;2022-12-10T06:28:54;2.80;99.90
25839;DHT22;13669;50.186;27.062;2022-12-10T06:31:22;2.80;99.90
25839;DHT22;13669;50.186;27.062;2022-12-10T06:33:50;2.90;99.90
25839;DHT22;13669;50.186;27.062;2022-12-10T06:36:18;2.90;99.90
25839;DHT22;13669;50.186;27.062;2022-12-10T06:38:46;2.90;99.90
25839;DHT22;13669;50.186;27.062;2022-12-10T06:41:15;2.90;99.90
25839;DHT22;13669;50.186;27.062;2022-12-10T06:43:43;3.00;99.90
25839;DHT22;13669;50.186;27.062;2022-12-10T06:46:13;3.00;99.90
25839;DHT22;13669;50.186;27.062;2022-12-10T06:48:41;3.10;99.90
25839;DHT22;13669;50.186;27.062;2022-12-10T06:51:10;3.10;99.90
25839;DHT22;13669;50.186;27.062;2022-12-10T06:53:39;3.20;99.90
25839;DHT22;13669;50.186;27.062;2022-12-10T06:56:07;3.20;99.90
25839;DHT22;13669;50.186;27.062;2022-12-10T06:58:37;3.10;99.90
25839;DHT22;13669;50.186;27.062;2022-12-10T07:01:22;3.20;99.90
25839;DHT22;13669;50.186;27.062;2022-12-10T07:03:55;3.20;99.90
25839;DHT22;13669;50.186;27.062;2022-12-10T07:06:24;3.30;99.90
25839;DHT22;13669;50.186;27.062;2022-12-10T07:08:52;3.30;99.90
25839;DHT22;13669;50.186;27.062;2022-12-10T07:11:21;3.30;99.90
25839;DHT22;13669;50.186;27.062;2022-12-10T07:13:49;3.30;99.90
25839;DHT22;13669;50.186;27.062;2022-12-10T07:16:20;3.30;99.90
25839;DHT22;13669;50.186;27.062;2022-12-10T07:18:49;3.40;99.90
25839;DHT22;13669;50.186;27.062;2022-12-10T07:21:23;3.40;99.90
25839;DHT22;13669;50.186;27.062;2022-12-10T07:23:52;3.50;99.90
25839;DHT22;13669;50.186;27.062;2022-12-10T07:26:21;3.50;99.90
25839;DHT22;13669;50.186;27.062;2022-12-10T07:28:48;3.50;99.90
25839;DHT22;13669;50.186;27.062;2022-12-10T07:31:21;3.50;99.90
25839;DHT22;13669;50.186;27.062;2022-12-10T07:33:51;3.50;99.90
25839;DHT22;13669;50.186;27.062;2022-12-10T07:36:20;3.50;99.90
25839;DHT22;13669;50.186;27.062;2022-12-10T07:38:48;3.50;99.90
25839;DHT22;13669;50.186;27.062;2022-12-10T07:41:17;3.50;99.90
25839;DHT22;13669;50.186;27.062;2022-12-10T07:43:45;3.60;99.90
25839;DHT22;13669;50.186;27.062;2022-12-10T07:48:44;3.60;99.90
25839;DHT22;13669;50.186;27.062;2022-12-10T07:51:13;3.60;99.90
25839;DHT22;13669;50.186;27.062;2022-12-10T07:53:41;3.70;99.90
25839;DHT22;13669;50.186;27.062;2022-12-10T07:56:09;3.70;99.90
25839;DHT22;13669;50.186;27.062;2022-12-10T07:58:40;3.70;99.90
25839;DHT22;13669;50.186;27.062;2022-12-10T08:01:08;3.60;99.90
25839;DHT22;13669;50.186;27.062;2022-12-10T08:03:36;3.70;99.90
25839;DHT22;13669;50.186;27.062;2022-12-10T08:06:10;3.70;99.90
25839;DHT22;13669;50.186;27.062;2022-12-10T08:08:38;3.70;99.90
25839;DHT22;13669;50.186;27.062;2022-12-10T08:11:07;3.70;99.90
25839;DHT22;13669;50.186;27.062;2022-12-10T08:13:35;3.70;99.90
25839;DHT22;13669;50.186;27.062;2022-12-10T08:16:09;3.70;99.90
25839;DHT22;13669;50.186;27.062;2022-12-10T08:18:38;3.70;99.90
25839;DHT22;13669;50.186;27.062;2022-12-10T08:21:08;3.80;99.90
25839;DHT22;13669;50.186;27.062;2022-12-10T08:23:36;3.90;99.90
25839;DHT22;13669;50.186;27.062;2022-12-10T08:26:09;4.00;99.90
25839;DHT22;13669;50.186;27.062;2022-12-10T08:28:37;4.00;99.90
25839;DHT22;13669;50.186;27.062;2022-12-10T08:31:07;4.00;99.90
25839;DHT22;13669;50.186;27.062;2022-12-10T08:33:36;4.10;99.90
25839;DHT22;13669;50.186;27.062;2022-12-10T08:36:06;4.20;99.90
25839;DHT22;13669;50.186;27.062;2022-12-10T08:38:36;4.30;99.90
25839;DHT22;13669;50.186;27.062;2022-12-10T08:41:08;4.40;99.90
25839;DHT22;13669;50.186;27.062;2022-12-10T08:43:36;4.50;99.90
25839;DHT22;13669;50.186;27.062;2022-12-10T08:46:04;4.60;99.90
25839;DHT22;13669;50.186;27.062;2022-12-10T08:48:33;4.70;99.90
25839;DHT22;13669;50.186;27.062;2022-12-10T08:51:02;4.80;99.90
25839;DHT22;13669;50.186;27.062;2022-12-10T08:53:29;4.80;99.90
25839;DHT22;13669;50.186;27.062;2022-12-10T08:55:59;4.70;99.90
25839;DHT22;13669;50.186;27.062;2022-12-10T08:58:26;4.80;99.90
25839;DHT22;13669;50.186;27.062;2022-12-10T09:00:54;4.90;99.90
25839;DHT22;13669;50.186;27.062;2022-12-10T09:03:23;5.00;99.90
25839;DHT22;13669;50.186;27.062;2022-12-10T09:05:51;5.10;99.90
25839;DHT22;13669;50.186;27.062;2022-12-10T09:08:18;5.20;99.90
25839;DHT22;13669;50.186;27.062;2022-12-10T09:10:46;5.30;99.90
25839;DHT22;13669;50.186;27.062;2022-12-10T09:13:14;5.50;99.90
25839;DHT22;13669;50.186;27.062;2022-12-10T09:15:49;5.40;99.90
25839;DHT22;13669;50.186;27.062;2022-12-10T09:18:18;5.40;99.90
25839;DHT22;13669;50.186;27.062;2022-12-10T09:20:45;5.40;99.90
25839;DHT22;13669;50.186;27.062;2022-12-10T09:23:13;5.30;99.90
25839;DHT22;13669;50.186;27.062;2022-12-10T09:25:40;5.20;99.90
25839;DHT22;13669;50.186;27.062;2022-12-10T09:28:08;5.10;99.90
25839;DHT22;13669;50.186;27.062;2022-12-10T09:30:36;5.00;99.90
25839;DHT22;13669;50.186;27.062;2022-12-10T09:33:03;5.10;99.90
25839;DHT22;13669;50.186;27.062;2022-12-10T09:35:31;5.10;99.90
25839;DHT22;13669;50.186;27.062;2022-12-10T09:37:58;5.20;99.90
25839;DHT22;13669;50.186;27.062;2022-12-10T09:41:02;5.20;99.90
25839;DHT22;13669;50.186;27.062;2022-12-10T09:43:42;5.10;99.90
25839;DHT22;13669;50.186;27.062;2022-12-10T09:49:08;5.30;99.90
25839;DHT22;13669;50.186;27.062;2022-12-10T09:51:40;5.40;99.90
25839;DHT22;13669;50.186;27.062;2022-12-10T09:54:35;5.40;99.90
25839;DHT22;13669;50.186;27.062;2022-12-10T09:57:07;5.50;99.90
25839;DHT22;13669;50.186;27.062;2022-12-10T09:59:40;5.40;99.90
25839;DHT22;13669;50.186;27.062;2022-12-10T10:04:42;5.40;99.90
25839;DHT22;13669;50.186;27.062;2022-12-10T10:07:19;5.50;99.90
25839;DHT22;13669;50.186;27.062;2022-12-10T10:09:48;5.50;99.90
25839;DHT22;13669;50.186;27.062;2022-12-10T10:12:16;5.50;99.90
25839;DHT22;13669;50.186;27.062;2022-12-10T10:14:44;5.50;99.90
25839;DHT22;13669;50.186;27.062;2022-12-10T10:17:35;5.40;99.90
25839;DHT22;13669;50.186;27.062;2022-12-10T10:20:04;5.30;99.90
25839;DHT22;13669;50.186;27.062;2022-12-10T10:22:31;5.20;99.90
25839;DHT22;13669;50.186;27.062;2022-12-10T10:24:59;5.10;99.90
25839;DHT22;13669;50.186;27.062;2022-12-10T10:27:30;5.10;99.90
25839;DHT22;13669;50.186;27.062;2022-12-10T10:30:02;5.00;99.90
25839;DHT22;13669;50.186;27.062;2022-12-10T10:35:05;4.80;99.90
25839;DHT22;13669;50.186;27.062;2022-12-10T10:40:03;4.80;99.90
25839;DHT22;13669;50.186;27.062;2022-12-10T10:45:04;4.70;99.90
25839;DHT22;13669;50.186;27.062;2022-12-10T10:47:34;4.70;99.90
25839;DHT22;13669;50.186;27.062;2022-12-10T10:50:05;4.70;99.90
25839;DHT22;13669;50.186;27.062;2022-12-10T10:52:38;4.70;99.90
25839;DHT22;13669;50.186;27.062;2022-12-10T10:55:08;4.60;99.90
25839;DHT22;13669;50.186;27.062;2022-12-10T10:57:53;4.50;99.90
25839;DHT22;13669;50.186;27.062;2022-12-10T11:00:21;4.50;99.90
25839;DHT22;13669;50.186;27.062;2022-12-10T11:02:52;4.40;99.90
25839;DHT22;13669;50.186;27.062;2022-12-10T11:05:29;4.50;99.90
25839;DHT22;13669;50.186;27.062;2022-12-10T11:10:30;4.60;99.90
25839;DHT22;13669;50.186;27.062;2022-12-10T11:13:05;4.50;99.90
25839;DHT22;13669;50.186;27.062;2022-12-10T11:15:38;4.60;99.90
25839;DHT22;13669;50.186;27.062;2022-12-10T11:18:32;4.70;99.90
25839;DHT22;13669;50.186;27.062;2022-12-10T11:21:21;4.70;99.90
25839;DHT22;13669;50.186;27.062;2022-12-10T11:23:53;4.70;99.90
25839;DHT22;13669;50.186;27.062;2022-12-10T11:31:40;4.70;99.90
25839;DHT22;13669;50.186;27.062;2022-12-10T11:37:03;4.70;99.90
25839;DHT22;13669;50.186;27.062;2022-12-10T11:40:02;4.70;99.90
25839;DHT22;13669;50.186;27.062;2022-12-10T11:57:52;4.60;99.90
25839;DHT22;13669;50.186;27.062;2022-12-10T12:00:25;4.60;99.90
25839;DHT22;13669;50.186;27.062;2022-12-10T12:06:06;4.50;99.90
25839;DHT22;13669;50.186;27.062;2022-12-10T12:08:45;4.40;99.90
25839;DHT22;13669;50.186;27.062;2022-12-10T12:14:29;4.40;99.90
25839;DHT22;13669;50.186;27.062;2022-12-10T12:17:05;4.40;99.90
25839;DHT22;13669;50.186;27.062;2022-12-10T12:19:39;4.40;99.90
25839;DHT22;13669;50.186;27.062;2022-12-10T12:22:16;4.50;99.90
25839;DHT22;13669;50.186;27.062;2022-12-10T12:24:46;4.50;99.90
25839;DHT22;13669;50.186;27.062;2022-12-10T12:27:31;4.50;99.90
25839;DHT22;13669;50.186;27.062;2022-12-10T12:30:15;4.60;99.90
25839;DHT22;13669;50.186;27.062;2022-12-10T12:35:50;4.60;99.90
25839;DHT22;13669;50.186;27.062;2022-12-10T12:46:20;4.70;99.90
25839;DHT22;13669;50.186;27.062;2022-12-10T12:49:05;4.70;99.90
25839;DHT22;13669;50.186;27.062;2022-12-10T12:51:39;4.60;99.90
25839;DHT22;13669;50.186;27.062;2022-12-10T12:54:13;4.70;99.90
25839;DHT22;13669;50.186;27.062;2022-12-10T12:56:55;4.70;99.90
25839;DHT22;13669;50.186;27.062;2022-12-10T13:05:23;4.70;99.90
25839;DHT22;13669;50.186;27.062;2022-12-10T13:13:30;4.80;99.90
25839;DHT22;13669;50.186;27.062;2022-12-10T13:22:12;4.70;99.90
25839;DHT22;13669;50.186;27.062;2022-12-10T13:25:16;4.70;99.90
25839;DHT22;13669;50.186;27.062;2022-12-10T13:27:55;4.70;99.90
25839;DHT22;13669;50.186;27.062;2022-12-10T13:30:33;4.60;99.90
25839;DHT22;13669;50.186;27.062;2022-12-10T13:33:18;4.60;99.90
25839;DHT22;13669;50.186;27.062;2022-12-10T13:35:58;4.70;99.90
25839;DHT22;13669;50.186;27.062;2022-12-10T13:38:40;4.60;99.90
25839;DHT22;13669;50.186;27.062;2022-12-10T13:41:08;4.60;99.90
25839;DHT22;13669;50.186;27.062;2022-12-10T13:43:59;4.70;99.90
25839;DHT22;13669;50.186;27.062;2022-12-10T13:49:58;4.70;99.90
25839;DHT22;13669;50.186;27.062;2022-12-10T14:00:46;4.60;99.90
25839;DHT22;13669;50.186;27.062;2022-12-10T14:06:05;4.60;99.90
25839;DHT22;13669;50.186;27.062;2022-12-10T14:08:41;4.60;99.90
25839;DHT22;13669;50.186;27.062;2022-12-10T14:11:19;4.60;99.90
25839;DHT22;13669;50.186;27.062;2022-12-10T14:13:53;4.60;99.90
25839;DHT22;13669;50.186;27.062;2022-12-10T14:16:22;4.60;99.90
25839;DHT22;13669;50.186;27.062;2022-12-10T14:19:00;4.60;99.90
25839;DHT22;13669;50.186;27.062;2022-12-10T14:21:35;4.60;99.90
25839;DHT22;13669;50.186;27.062;2022-12-10T14:24:03;4.60;99.90
25839;DHT22;13669;50.186;27.062;2022-12-10T14:26:36;4.60;99.90
25839;DHT22;13669;50.186;27.062;2022-12-10T14:31:37;4.60;99.90
25839;DHT22;13669;50.186;27.062;2022-12-10T14:34:07;4.50;99.90
25839;DHT22;13669;50.186;27.062;2022-12-10T14:36:44;4.50;99.90
25839;DHT22;13669;50.186;27.062;2022-12-10T14:39:25;4.50;99.90
25839;DHT22;13669;50.186;27.062;2022-12-10T14:41:57;4.50;99.90
25839;DHT22;13669;50.186;27.062;2022-12-10T14:44:26;4.50;99.90
25839;DHT22;13669;50.186;27.062;2022-12-10T14:47:16;4.50;99.90
25839;DHT22;13669;50.186;27.062;2022-12-10T14:49:47;4.40;99.90
25839;DHT22;13669;50.186;27.062;2022-12-10T14:52:20;4.40;99.90
25839;DHT22;13669;50.186;27.062;2022-12-10T14:54:49;4.40;99.90
25839;DHT22;13669;50.186;27.062;2022-12-10T14:57:29;4.40;99.90
25839;DHT22;13669;50.186;27.062;2022-12-10T15:02:44;4.40;99.90
25839;DHT22;13669;50.186;27.062;2022-12-10T15:05:17;4.40;99.90
25839;DHT22;13669;50.186;27.062;2022-12-10T15:07:58;4.40;99.90
25839;DHT22;13669;50.186;27.062;2022-12-10T15:10:44;4.40;99.90
25839;DHT22;13669;50.186;27.062;2022-12-10T15:13:39;4.40;99.90
25839;DHT22;13669;50.186;27.062;2022-12-10T15:16:19;4.30;99.90
25839;DHT22;13669;50.186;27.062;2022-12-10T15:18:47;4.20;99.90
25839;DHT22;13669;50.186;27.062;2022-12-10T15:21:23;4.20;99.90
25839;DHT22;13669;50.186;27.062;2022-12-10T15:24:15;4.20;99.90
25839;DHT22;13669;50.186;27.062;2022-12-10T15:26:45;4.20;99.90
25839;DHT22;13669;50.186;27.062;2022-12-10T15:31:57;4.30;99.90
25839;DHT22;13669;50.186;27.062;2022-12-10T15:34:39;4.20;99.90
25839;DHT22;13669;50.186;27.062;2022-12-10T15:37:15;4.20;99.90
25839;DHT22;13669;50.186;27.062;2022-12-10T15:39:47;4.10;99.90
25839;DHT22;13669;50.186;27.062;2022-12-10T15:42:41;4.10;99.90
25839;DHT22;13669;50.186;27.062;2022-12-10T15:45:24;4.00;99.90
25839;DHT22;13669;50.186;27.062;2022-12-10T15:47:57;4.10;99.90
25839;DHT22;13669;50.186;27.062;2022-12-10T15:50:26;4.00;99.90
25839;DHT22;13669;50.186;27.062;2022-12-10T15:52:55;4.10;99.90
25839;DHT22;13669;50.186;27.062;2022-12-10T15:55:22;4.00;99.90
25839;DHT22;13669;50.186;27.062;2022-12-10T15:57:50;4.10;99.90
25839;DHT22;13669;50.186;27.062;2022-12-10T16:00:24;4.10;99.90
25839;DHT22;13669;50.186;27.062;2022-12-10T16:03:04;4.10;99.90
25839;DHT22;13669;50.186;27.062;2022-12-10T16:05:36;4.00;99.90
25839;DHT22;13669;50.186;27.062;2022-12-10T16:08:26;4.00;99.90
25839;DHT22;13669;50.186;27.062;2022-12-10T16:10:57;4.00;99.90
25839;DHT22;13669;50.186;27.062;2022-12-10T16:13:30;3.90;99.90
25839;DHT22;13669;50.186;27.062;2022-12-10T16:16:02;3.90;99.90
25839;DHT22;13669;50.186;27.062;2022-12-10T16:18:31;3.80;99.90
25839;DHT22;13669;50.186;27.062;2022-12-10T16:21:00;3.80;99.90
25839;DHT22;13669;50.186;27.062;2022-12-10T16:23:28;3.80;99.90
25839;DHT22;13669;50.186;27.062;2022-12-10T16:25:56;3.80;99.90
25839;DHT22;13669;50.186;27.062;2022-12-10T16:28:25;3.80;99.90
25839;DHT22;13669;50.186;27.062;2022-12-10T16:30:55;3.70;99.90
25839;DHT22;13669;50.186;27.062;2022-12-10T16:33:25;3.80;99.90
25839;DHT22;13669;50.186;27.062;2022-12-10T16:35:53;3.80;99.90
25839;DHT22;13669;50.186;27.062;2022-12-10T16:38:21;3.80;99.90
25839;DHT22;13669;50.186;27.062;2022-12-10T16:40:49;3.80;99.90
25839;DHT22;13669;50.186;27.062;2022-12-10T16:43:23;3.80;99.90
25839;DHT22;13669;50.186;27.062;2022-12-10T16:45:51;3.80;99.90
25839;DHT22;13669;50.186;27.062;2022-12-10T16:48:19;3.70;99.90
25839;DHT22;13669;50.186;27.062;2022-12-10T16:50:48;3.70;99.90
25839;DHT22;13669;50.186;27.062;2022-12-10T16:53:28;3.70;99.90
25839;DHT22;13669;50.186;27.062;2022-12-10T16:55:57;3.60;99.90
25839;DHT22;13669;50.186;27.062;2022-12-10T16:58:25;3.60;99.90
25839;DHT22;13669;50.186;27.062;2022-12-10T17:00:54;3.70;99.90
25839;DHT22;13669;50.186;27.062;2022-12-10T17:03:24;3.60;99.90
25839;DHT22;13669;50.186;27.062;2022-12-10T17:06:00;3.60;99.90
25839;DHT22;13669;50.186;27.062;2022-12-10T17:08:28;3.60;99.90
25839;DHT22;13669;50.186;27.062;2022-12-10T17:10:57;3.60;99.90
25839;DHT22;13669;50.186;27.062;2022-12-10T17:13:44;3.60;99.90
25839;DHT22;13669;50.186;27.062;2022-12-10T17:16:15;3.70;99.90
25839;DHT22;13669;50.186;27.062;2022-12-10T17:18:44;3.70;99.90
25839;DHT22;13669;50.186;27.062;2022-12-10T17:21:12;3.60;99.90
25839;DHT22;13669;50.186;27.062;2022-12-10T17:23:39;3.60;99.90
25839;DHT22;13669;50.186;27.062;2022-12-10T17:26:08;3.50;99.90
25839;DHT22;13669;50.186;27.062;2022-12-10T17:28:38;3.50;99.90
25839;DHT22;13669;50.186;27.062;2022-12-10T17:31:05;3.50;99.90
25839;DHT22;13669;50.186;27.062;2022-12-10T17:33:33;3.40;99.90
25839;DHT22;13669;50.186;27.062;2022-12-10T17:36:00;3.40;99.90
25839;DHT22;13669;50.186;27.062;2022-12-10T17:38:28;3.50;99.90
25839;DHT22;13669;50.186;27.062;2022-12-10T17:40:55;3.50;99.90
25839;DHT22;13669;50.186;27.062;2022-12-10T17:43:23;3.30;99.90
25839;DHT22;13669;50.186;27.062;2022-12-10T17:45:59;3.40;99.90
25839;DHT22;13669;50.186;27.062;2022-12-10T17:48:26;3.40;99.90
25839;DHT22;13669;50.186;27.062;2022-12-10T17:50:54;3.40;99.90
25839;DHT22;13669;50.186;27.062;2022-12-10T17:53:21;3.40;99.90
25839;DHT22;13669;50.186;27.062;2022-12-10T17:55:53;3.40;99.90
25839;DHT22;13669;50.186;27.062;2022-12-10T17:58:21;3.40;99.90
25839;DHT22;13669;50.186;27.062;2022-12-10T18:00:51;3.40;99.90